createdAt,value
2023-02-07T00:01:56.890Z,102140.31
2023-02-07T00:04:46.785Z,102152.22
2023-02-07T00:07:35.576Z,102150.19
2023-02-07T00:10:24.142Z,102146.84
2023-02-07T00:13:12.670Z,102143.44
2023-02-07T00:16:01.225Z,102145.31
2023-02-07T00:18:50.053Z,102151.19
2023-02-07T00:21:40.021Z,102150.81
2023-02-07T00:24:28.539Z,102133.00
2023-02-07T00:27:17.057Z,102144.03
2023-02-07T00:30:06.438Z,102138.53
2023-02-07T00:32:55.014Z,102126.66
2023-02-07T00:35:43.813Z,102123.34
2023-02-07T00:38:33.666Z,102123.91
2023-02-07T00:41:22.180Z,102121.69
2023-02-07T00:44:10.680Z,102118.81
2023-02-07T00:46:59.241Z,102111.25
2023-02-07T00:49:47.932Z,102122.31
2023-02-07T00:52:36.430Z,102118.91
2023-02-07T00:55:26.508Z,102114.91
2023-02-07T00:58:14.966Z,102117.91
2023-02-07T01:01:03.544Z,102125.84
2023-02-07T01:03:52.448Z,102135.13
2023-02-07T01:06:41.081Z,102140.34
2023-02-07T01:09:29.560Z,102141.63
2023-02-07T01:12:19.427Z,102134.03
2023-02-07T01:15:08.774Z,102118.56
2023-02-07T01:17:57.263Z,102129.78
2023-02-07T01:20:45.925Z,102140.38
2023-02-07T01:23:34.397Z,102148.75
2023-02-07T01:26:22.907Z,102136.69
2023-02-07T01:29:15.454Z,102137.25
2023-02-07T01:32:03.937Z,102134.31
2023-02-07T01:34:52.455Z,102138.28
2023-02-07T01:37:41.074Z,102130.44
2023-02-07T01:40:31.289Z,102131.28
2023-02-07T01:43:23.407Z,102132.16
2023-02-07T01:46:13.241Z,102135.38
2023-02-07T01:49:05.277Z,102141.34
2023-02-07T01:51:56.582Z,102001.13
2023-02-07T01:54:46.255Z,102154.91
2023-02-07T01:57:34.747Z,102147.34
2023-02-07T02:00:23.363Z,102156.06
2023-02-07T02:03:13.755Z,102162.06
2023-02-07T02:06:04.687Z,102168.41
2023-02-07T02:08:54.145Z,102167.38
2023-02-07T02:12:00.619Z,102170.78
2023-02-07T02:15:01.715Z,102119.38
2023-02-07T02:18:01.565Z,102164.72
2023-02-07T02:21:17.809Z,102172.84
2023-02-07T02:24:39.875Z,102180.25
2023-02-07T02:27:42.026Z,102174.59
2023-02-07T02:30:45.061Z,102159.22
2023-02-07T02:33:43.580Z,102152.59
2023-02-07T02:36:35.436Z,102167.63
2023-02-07T02:39:32.507Z,102143.38
2023-02-07T02:42:27.951Z,102156.38
2023-02-07T02:45:19.777Z,102156.38
2023-02-07T02:48:11.064Z,102161.06
2023-02-07T02:51:01.216Z,102159.03
2023-02-07T02:53:53.600Z,102110.66
2023-02-07T02:57:00.148Z,102159.03
2023-02-07T03:00:16.611Z,102158.75
2023-02-07T03:03:20.616Z,102166.16
2023-02-07T03:06:23.911Z,102184.13
2023-02-07T03:09:19.050Z,102106.94
2023-02-07T03:12:11.429Z,102180.53
2023-02-07T03:15:04.371Z,102185.78
2023-02-07T03:17:56.111Z,102193.28
2023-02-07T03:20:47.549Z,102111.59
2023-02-07T03:23:38.581Z,102198.91
2023-02-07T03:26:27.697Z,102200.56
2023-02-07T03:29:17.858Z,102192.81
2023-02-07T03:32:10.527Z,102197.63
2023-02-07T03:35:01.821Z,102196.25
2023-02-07T03:37:54.075Z,102194.13
2023-02-07T03:40:46.034Z,102187.06
2023-02-07T03:43:35.303Z,102180.97
2023-02-07T03:46:24.605Z,102188.78
2023-02-07T03:49:14.831Z,102182.06
2023-02-07T03:52:03.414Z,102181.06
2023-02-07T03:54:51.858Z,102197.78
2023-02-07T03:57:41.816Z,102192.50
2023-02-07T04:00:30.405Z,102196.53
2023-02-07T04:03:18.867Z,102221.09
2023-02-07T04:06:07.628Z,102206.66
2023-02-07T04:08:56.065Z,102198.97
2023-02-07T04:11:44.581Z,102206.81
2023-02-07T04:14:34.458Z,102195.00
2023-02-07T04:17:22.910Z,102184.88
2023-02-07T04:20:12.277Z,102188.81
2023-02-07T04:23:00.729Z,102174.25
2023-02-07T04:25:49.178Z,102176.63
2023-02-07T04:28:37.676Z,102176.63
2023-02-07T04:31:27.533Z,102176.34
2023-02-07T04:34:16.216Z,102176.91
2023-02-07T04:37:04.686Z,102176.69
2023-02-07T04:39:53.196Z,102169.97
2023-02-07T04:42:41.660Z,102158.44
2023-02-07T04:45:30.193Z,102132.75
2023-02-07T04:48:19.992Z,102180.63
2023-02-07T04:51:08.690Z,102181.06
2023-02-07T04:53:57.452Z,102182.16
2023-02-07T04:56:45.929Z,102180.13
2023-02-07T04:59:34.661Z,102179.09
2023-02-07T05:02:24.501Z,102184.34
2023-02-07T05:05:14.393Z,102182.41
2023-02-07T05:08:05.205Z,102186.41
2023-02-07T05:10:54.700Z,102185.38
2023-02-07T05:13:43.224Z,102182.41
2023-02-07T05:16:31.805Z,102196.69
2023-02-07T05:19:20.397Z,102194.03
2023-02-07T05:22:10.412Z,102193.00
2023-02-07T05:24:58.861Z,102193.09
2023-02-07T05:27:47.416Z,102192.75
2023-02-07T05:30:36.236Z,102188.78
2023-02-07T05:33:24.809Z,102192.91
2023-02-07T05:36:13.258Z,102188.31
2023-02-07T05:39:04.447Z,102190.44
2023-02-07T05:41:53.015Z,102198.28
2023-02-07T05:44:41.521Z,102070.50
2023-02-07T05:47:29.963Z,102188.16
2023-02-07T05:50:19.093Z,102195.16
2023-02-07T05:53:08.309Z,102198.13
2023-02-07T05:55:58.177Z,102149.34
2023-02-07T05:58:46.742Z,102204.81
2023-02-07T06:01:37.334Z,102207.53
2023-02-07T06:04:25.997Z,102202.19
2023-02-07T06:07:14.500Z,102202.72
2023-02-07T06:10:03.271Z,102203.22
2023-02-07T06:12:53.178Z,102218.88
2023-02-07T06:15:41.941Z,102226.84
2023-02-07T06:18:30.537Z,102229.41
2023-02-07T06:21:19.057Z,102213.75
2023-02-07T06:24:08.186Z,102219.34
2023-02-07T06:26:56.664Z,102217.91
2023-02-07T06:29:46.501Z,102204.09
2023-02-07T06:32:35.115Z,102204.47
2023-02-07T06:35:23.591Z,102210.50
2023-02-07T06:38:12.060Z,102210.00
2023-02-07T06:41:00.524Z,102199.16
2023-02-07T06:43:49.051Z,102216.88
2023-02-07T06:46:39.250Z,102209.88
2023-02-07T06:49:27.771Z,102211.19
2023-02-07T06:52:16.502Z,102219.72
2023-02-07T06:55:05.244Z,102218.22
2023-02-07T06:57:53.924Z,102227.06
2023-02-07T07:00:42.598Z,102226.84
2023-02-07T07:03:32.664Z,102245.97
2023-02-07T07:06:21.110Z,102248.91
2023-02-07T07:09:09.621Z,102247.34
2023-02-07T07:11:58.265Z,102257.78
2023-02-07T07:14:46.807Z,102264.97
2023-02-07T07:17:35.338Z,102256.50
2023-02-07T07:20:25.293Z,102257.22
2023-02-07T07:23:13.835Z,102257.88
2023-02-07T07:26:02.458Z,102205.31
2023-02-07T07:28:51.020Z,102135.63
2023-02-07T07:31:39.579Z,102244.44
2023-02-07T07:34:28.365Z,102259.94
2023-02-07T07:37:18.802Z,102244.56
2023-02-07T07:40:08.542Z,102260.09
2023-02-07T07:42:57.114Z,102258.78
2023-02-07T07:45:45.595Z,102260.03
2023-02-07T07:48:35.270Z,102270.00
2023-02-07T07:51:24.100Z,102271.19
2023-02-07T07:54:16.092Z,102270.38
2023-02-07T07:57:04.787Z,102265.63
2023-02-07T07:59:53.309Z,102271.78
2023-02-07T08:02:42.092Z,102256.16
2023-02-07T08:05:30.586Z,102268.72
2023-02-07T08:08:20.484Z,102274.25
2023-02-07T08:11:11.348Z,102271.59
2023-02-07T08:13:59.864Z,102269.34
2023-02-07T08:16:48.619Z,102284.63
2023-02-07T08:19:38.301Z,102284.41
2023-02-07T08:22:26.862Z,102295.03
2023-02-07T08:25:15.515Z,102296.72
2023-02-07T08:28:05.487Z,102303.34
2023-02-07T08:30:53.987Z,102291.25
2023-02-07T08:33:44.881Z,102305.19
2023-02-07T08:36:33.438Z,102299.56
2023-02-07T08:39:22.160Z,102305.63
2023-02-07T08:42:10.687Z,102302.13
2023-02-07T08:45:00.650Z,102318.09
2023-02-07T08:47:49.154Z,102320.81
2023-02-07T08:50:38.077Z,102267.69
2023-02-07T08:53:26.898Z,102320.78
2023-02-07T08:56:15.462Z,102323.34
2023-02-07T08:59:04.297Z,102315.13
2023-02-07T09:01:54.231Z,102320.97
2023-02-07T09:04:43.263Z,102315.34
2023-02-07T09:07:31.848Z,102321.38
2023-02-07T09:10:20.578Z,102323.00
2023-02-07T09:13:09.176Z,102325.66
2023-02-07T09:15:58.577Z,102321.88
2023-02-07T09:18:50.257Z,102323.69
2023-02-07T09:21:38.885Z,102320.16
2023-02-07T09:24:30.101Z,102329.59
2023-02-07T09:27:18.675Z,102337.56
2023-02-07T09:30:09.290Z,102334.34
2023-02-07T09:32:58.309Z,102342.75
2023-02-07T09:35:48.696Z,102331.34
2023-02-07T09:38:37.212Z,102354.41
2023-02-07T09:41:30.963Z,102349.69
2023-02-07T09:44:26.120Z,102352.66
2023-02-07T09:47:18.170Z,102341.25
2023-02-07T09:50:09.549Z,102347.44
2023-02-07T09:53:06.504Z,102347.63
2023-02-07T09:55:56.841Z,102357.44
2023-02-07T09:58:48.586Z,102279.75
2023-02-07T10:01:40.402Z,102357.31
2023-02-07T10:04:31.443Z,102308.53
2023-02-07T10:07:19.955Z,102350.09
2023-02-07T10:10:16.775Z,102357.56
2023-02-07T10:13:21.460Z,102347.97
2023-02-07T10:16:21.181Z,102346.13
2023-02-07T10:19:19.310Z,102346.50
2023-02-07T10:22:15.754Z,102340.66
2023-02-07T10:25:12.966Z,102341.09
2023-02-07T10:28:19.427Z,102345.09
2023-02-07T10:31:18.636Z,102350.00
2023-02-07T10:34:13.531Z,102358.19
2023-02-07T10:37:07.254Z,102353.03
2023-02-07T10:40:02.327Z,102347.47
2023-02-07T10:42:54.686Z,102335.88
2023-02-07T10:45:45.336Z,102340.50
2023-02-07T10:48:35.204Z,102349.50
2023-02-07T10:51:28.810Z,102352.47
2023-02-07T10:54:20.205Z,102340.78
2023-02-07T10:57:17.360Z,102324.28
2023-02-07T11:00:08.775Z,102343.03
2023-02-07T11:03:03.379Z,102352.56
2023-02-07T11:05:55.563Z,102341.94
2023-02-07T11:08:44.119Z,102342.63
2023-02-07T11:11:36.602Z,102340.72
2023-02-07T11:14:28.296Z,102335.00
2023-02-07T11:17:21.433Z,102332.72
2023-02-07T11:20:19.210Z,102326.16
2023-02-07T11:23:12.075Z,102329.44
2023-02-07T11:26:00.911Z,102329.88
2023-02-07T11:28:53.129Z,102319.38
2023-02-07T11:31:42.527Z,102314.94
2023-02-07T11:34:46.974Z,102321.09
2023-02-07T11:37:38.206Z,102317.97
2023-02-07T11:40:29.775Z,102333.78
2023-02-07T11:43:20.097Z,102183.50
2023-02-07T11:46:10.912Z,102303.03
2023-02-07T11:49:00.204Z,102232.91
2023-02-07T11:51:52.079Z,102305.59
2023-02-07T11:54:42.925Z,102303.91
2023-02-07T11:57:33.785Z,102311.00
2023-02-07T12:00:25.402Z,102308.25
2023-02-07T12:03:22.777Z,102300.41
2023-02-07T12:06:16.004Z,102322.91
2023-02-07T12:09:06.425Z,102305.06
2023-02-07T12:11:57.263Z,102300.63
2023-02-07T12:14:51.740Z,102304.75
2023-02-07T12:17:43.691Z,102306.97
2023-02-07T12:20:37.516Z,102296.25
2023-02-07T12:23:42.403Z,102298.81
2023-02-07T12:26:34.080Z,102288.38
2023-02-07T12:29:31.698Z,102295.94
2023-02-07T12:32:27.326Z,102294.88
2023-02-07T12:35:21.752Z,102283.28
2023-02-07T12:38:18.026Z,102274.41
2023-02-07T12:41:14.943Z,102277.78
2023-02-07T12:44:09.481Z,102271.00
2023-02-07T12:47:02.600Z,102229.69
2023-02-07T12:50:16.714Z,102260.16
2023-02-07T12:53:17.330Z,102241.63
2023-02-07T12:56:14.325Z,102194.41
2023-02-07T12:59:13.544Z,102254.50
2023-02-07T13:02:17.267Z,102252.41
2023-02-07T13:05:27.136Z,102249.31
2023-02-07T13:08:23.857Z,102243.84
2023-02-07T13:11:22.896Z,102239.81
2023-02-07T13:14:23.684Z,102243.56
2023-02-07T13:17:31.912Z,102247.50
2023-02-07T13:20:28.816Z,102253.31
2023-02-07T13:23:19.458Z,102244.19
2023-02-07T13:26:11.515Z,102243.25
2023-02-07T13:29:01.760Z,102259.69
2023-02-07T13:31:52.480Z,102257.97
2023-02-07T13:34:46.240Z,102251.63
2023-02-07T13:37:40.490Z,102247.22
2023-02-07T13:40:34.809Z,102255.06
2023-02-07T13:43:30.414Z,102257.09
2023-02-07T13:46:32.946Z,102249.53
2023-02-07T13:49:26.475Z,102252.94
2023-02-07T13:52:22.697Z,102256.53
2023-02-07T13:55:21.757Z,102262.38
2023-02-07T13:59:06.057Z,102243.59
2023-02-07T14:01:55.800Z,102247.38
2023-02-07T14:04:50.349Z,102258.28
2023-02-07T14:07:40.497Z,102253.72
2023-02-07T14:10:50.573Z,102254.16
2023-02-07T14:13:39.070Z,102231.84
2023-02-07T14:16:46.864Z,102247.84
2023-02-07T14:19:54.915Z,102255.19
2023-02-07T14:23:12.131Z,102257.84
2023-02-07T14:26:00.650Z,102207.25
2023-02-07T14:28:49.127Z,102250.53
2023-02-07T14:31:41.923Z,102241.97
2023-02-07T14:34:31.769Z,102230.97
2023-02-07T14:37:23.253Z,102242.91
2023-02-07T14:40:22.409Z,102239.66
2023-02-07T14:43:17.985Z,102235.56
2023-02-07T14:46:10.618Z,102248.16
2023-02-07T14:49:01.463Z,102244.84
2023-02-07T14:51:52.930Z,102245.31
2023-02-07T14:54:44.894Z,102244.06
2023-02-07T14:57:44.204Z,102247.63
2023-02-07T15:00:35.355Z,102260.16
2023-02-07T15:03:23.924Z,102201.88
2023-02-07T15:06:30.769Z,102230.94
2023-02-07T15:09:25.611Z,102239.75
2023-02-07T15:12:26.836Z,102235.78
2023-02-07T15:15:22.385Z,102239.88
2023-02-07T15:18:14.285Z,102237.00
2023-02-07T15:21:03.339Z,102172.00
2023-02-07T15:23:56.471Z,102239.44
2023-02-07T15:26:50.230Z,102248.88
2023-02-07T15:29:39.037Z,102252.72
2023-02-07T15:32:30.883Z,102247.63
2023-02-07T15:35:22.443Z,102259.03
2023-02-07T15:38:16.403Z,102263.94
2023-02-07T15:41:08.009Z,102263.09
2023-02-07T15:44:00.929Z,102258.91
2023-02-07T15:46:50.980Z,102260.19
2023-02-07T15:49:43.205Z,102162.97
2023-02-07T15:52:33.976Z,102247.91
2023-02-07T15:55:25.900Z,102266.13
2023-02-07T15:58:22.743Z,102271.31
2023-02-07T16:01:16.789Z,102260.84
2023-02-07T16:04:05.508Z,102250.03
2023-02-07T16:07:01.288Z,102239.66
2023-02-07T16:09:49.973Z,102268.19
2023-02-07T16:12:45.959Z,102276.56
2023-02-07T16:15:36.563Z,102281.16
2023-02-07T16:18:38.838Z,102294.97
2023-02-07T16:21:28.346Z,102280.03
2023-02-07T16:24:19.896Z,102275.25
2023-02-07T16:27:08.499Z,102282.88
2023-02-07T16:29:58.023Z,102287.69
2023-02-07T16:32:46.670Z,102290.66
2023-02-07T16:35:35.274Z,102198.88
2023-02-07T16:38:23.736Z,102288.81
2023-02-07T16:41:23.828Z,102291.78
2023-02-07T16:44:15.668Z,102287.44
2023-02-07T16:47:04.169Z,102286.59
2023-02-07T16:49:52.652Z,102288.59
2023-02-07T16:52:41.124Z,102286.91
2023-02-07T16:55:29.879Z,102270.78
2023-02-07T16:58:27.581Z,102290.97
2023-02-07T17:01:18.519Z,102291.91
2023-02-07T17:04:07.059Z,102294.22
2023-02-07T17:06:55.515Z,102291.56
2023-02-07T17:09:46.319Z,102273.31
2023-02-07T17:12:34.849Z,102297.69
2023-02-07T17:15:24.973Z,102300.31
2023-02-07T17:18:13.902Z,102298.31
2023-02-07T17:21:02.654Z,102299.34
2023-02-07T17:23:51.615Z,102296.22
2023-02-07T17:26:43.514Z,102293.09
2023-02-07T17:29:32.057Z,102283.28
2023-02-07T17:32:21.917Z,102300.34
2023-02-07T17:35:10.460Z,102284.47
2023-02-07T17:38:00.100Z,102286.34
2023-02-07T17:40:48.679Z,102288.28
2023-02-07T17:43:37.313Z,102293.06
2023-02-07T17:46:27.900Z,102294.03
2023-02-07T17:49:18.151Z,102295.56
2023-02-07T17:52:08.491Z,102283.72
2023-02-07T17:54:56.974Z,102292.41
2023-02-07T17:57:45.569Z,102220.78
2023-02-07T18:00:36.686Z,102282.84
2023-02-07T18:03:25.197Z,102280.69
2023-02-07T18:06:16.296Z,102276.06
2023-02-07T18:09:04.882Z,102293.50
2023-02-07T18:11:53.407Z,102293.91
2023-02-07T18:14:41.894Z,102302.97
2023-02-07T18:17:31.622Z,102309.38
2023-02-07T18:20:22.572Z,102301.72
2023-02-07T18:23:13.433Z,102304.47
2023-02-07T18:26:02.164Z,102269.59
2023-02-07T18:28:53.463Z,102317.97
2023-02-07T18:31:41.970Z,102319.88
2023-02-07T18:34:30.498Z,102328.81
2023-02-07T18:37:21.084Z,102295.56
2023-02-07T18:40:15.658Z,102322.56
2023-02-07T18:43:05.226Z,102325.22
2023-02-07T18:45:53.821Z,102321.72
2023-02-07T18:48:44.837Z,102311.88
2023-02-07T18:51:34.021Z,102321.69
2023-02-07T18:54:22.643Z,102320.59
2023-02-07T18:57:12.778Z,102316.72
2023-02-07T19:00:01.338Z,102313.47
2023-02-07T19:02:50.043Z,102301.91
2023-02-07T19:05:38.887Z,102306.16
2023-02-07T19:08:27.641Z,102306.50
2023-02-07T19:11:16.465Z,102299.06
2023-02-07T19:14:12.002Z,102309.78
2023-02-07T19:17:00.725Z,102298.72
2023-02-07T19:19:50.228Z,102306.47
2023-02-07T19:22:38.815Z,102303.81
2023-02-07T19:25:27.538Z,102302.22
2023-02-07T19:28:16.122Z,102295.31
2023-02-07T19:31:06.783Z,102298.88
2023-02-07T19:33:56.068Z,102289.38
2023-02-07T19:36:46.681Z,102302.38
2023-02-07T19:39:35.946Z,102306.91
2023-02-07T19:42:25.117Z,102309.97
2023-02-07T19:45:13.651Z,102313.53
2023-02-07T19:48:03.555Z,102319.78
2023-02-07T19:50:58.760Z,102233.88
2023-02-07T19:53:55.738Z,102316.53
2023-02-07T19:56:46.555Z,102318.47
2023-02-07T19:59:35.198Z,102321.81
2023-02-07T20:02:25.030Z,102316.88
2023-02-07T20:05:15.013Z,102331.78
2023-02-07T20:08:03.572Z,102339.19
2023-02-07T20:10:52.066Z,102319.84
2023-02-07T20:13:43.222Z,102338.88
2023-02-07T20:16:36.342Z,102338.22
2023-02-07T20:19:25.200Z,102332.09
2023-02-07T20:22:15.068Z,102321.19
2023-02-07T20:25:04.611Z,102338.63
2023-02-07T20:27:53.281Z,102260.03
2023-02-07T20:30:44.458Z,102256.19
2023-02-07T20:33:35.257Z,102228.88
2023-02-07T20:36:23.972Z,102328.00
2023-02-07T20:39:15.810Z,102342.56
2023-02-07T20:42:04.712Z,102300.75
2023-02-07T20:44:53.268Z,102333.34
2023-02-07T20:47:41.750Z,102345.16
2023-02-07T20:50:30.315Z,102339.69
2023-02-07T20:53:18.838Z,102339.34
2023-02-07T20:56:12.462Z,102329.28
2023-02-07T20:59:01.192Z,102333.72
2023-02-07T21:01:49.836Z,102334.88
2023-02-07T21:04:39.296Z,102336.94
2023-02-07T21:07:27.911Z,102335.75
2023-02-07T21:10:16.418Z,102317.91
2023-02-07T21:13:06.304Z,102321.19
2023-02-07T21:16:02.822Z,102327.75
2023-02-07T21:18:52.139Z,102325.19
2023-02-07T21:21:40.718Z,102321.88
2023-02-07T21:24:29.222Z,102304.91
2023-02-07T21:27:18.961Z,102315.53
2023-02-07T21:30:10.190Z,102316.81
2023-02-07T21:32:58.655Z,102315.13
2023-02-07T21:35:48.366Z,102286.75
2023-02-07T21:38:37.206Z,102311.69
2023-02-07T21:41:27.153Z,102318.00
2023-02-07T21:44:16.135Z,102305.22
2023-02-07T21:47:06.064Z,102310.94
2023-02-07T21:49:54.600Z,102297.47
2023-02-07T21:52:43.045Z,102312.41
2023-02-07T21:55:33.974Z,102306.75
2023-02-07T21:58:22.497Z,102310.63
2023-02-07T22:01:13.653Z,102310.94
2023-02-07T22:04:04.778Z,102302.09
2023-02-07T22:06:53.273Z,102299.00
2023-02-07T22:09:41.788Z,102302.28
2023-02-07T22:12:30.369Z,102311.69
2023-02-07T22:15:19.127Z,102248.94
2023-02-07T22:18:07.730Z,102309.47
2023-02-07T22:21:04.892Z,102308.94
2023-02-07T22:23:53.745Z,102305.22
2023-02-07T22:26:42.874Z,102315.16
2023-02-07T22:29:31.416Z,102319.78
2023-02-07T22:32:20.235Z,102312.50
2023-02-07T22:35:09.061Z,102307.25
2023-02-07T22:37:59.252Z,102312.66
2023-02-07T22:40:47.790Z,102301.75
2023-02-07T22:43:37.417Z,102306.22
2023-02-07T22:46:26.204Z,102300.44
2023-02-07T22:49:14.811Z,102290.19
2023-02-07T22:52:03.554Z,102239.22
2023-02-07T22:54:56.102Z,102289.34
2023-02-07T22:57:44.591Z,102291.50
2023-02-07T23:00:33.221Z,102295.31
2023-02-07T23:03:21.771Z,102294.47
2023-02-07T23:06:10.274Z,102287.88
2023-02-07T23:08:59.015Z,102300.59
2023-02-07T23:11:48.938Z,102289.44
2023-02-07T23:14:38.515Z,102299.97
2023-02-07T23:17:27.364Z,102279.44
2023-02-07T23:20:17.469Z,102239.38
2023-02-07T23:23:06.290Z,102293.00
2023-02-07T23:25:54.707Z,102293.81
2023-02-07T23:28:45.026Z,102287.97
2023-02-07T23:31:33.962Z,102301.81
2023-02-07T23:34:22.538Z,102298.34
2023-02-07T23:37:10.956Z,102296.59
2023-02-07T23:39:59.450Z,102291.34
2023-02-07T23:42:47.976Z,102296.31
2023-02-07T23:45:37.801Z,102293.38
2023-02-07T23:48:27.533Z,102289.97
2023-02-07T23:51:16.495Z,102297.69
2023-02-07T23:54:05.271Z,102293.47
2023-02-07T23:56:54.025Z,102285.09
2023-02-07T23:59:42.571Z,102276.81
